createdAt,value
2023-05-04T00:00:36.865Z,32.42
2023-05-04T00:03:43.368Z,31.68
2023-05-04T00:06:49.103Z,31.12
2023-05-04T00:09:58.666Z,32.97
2023-05-04T00:13:07.180Z,35.19
2023-05-04T00:16:13.732Z,30.00
2023-05-04T00:19:19.755Z,30.59
2023-05-04T00:22:26.272Z,28.29
2023-05-04T00:25:32.002Z,27.80
2023-05-04T00:28:41.124Z,26.86
2023-05-04T00:31:46.738Z,27.66
2023-05-04T00:34:53.436Z,28.51
2023-05-04T00:37:59.613Z,28.33
2023-05-04T00:41:06.074Z,28.87
2023-05-04T00:44:14.383Z,28.21
2023-05-04T00:47:21.660Z,28.12
2023-05-04T00:50:29.242Z,28.04
2023-05-04T00:53:35.787Z,27.89
2023-05-04T00:56:43.481Z,28.13
2023-05-04T00:59:52.501Z,27.68
2023-05-04T01:03:00.946Z,27.93
2023-05-04T01:06:27.704Z,27.33
2023-05-04T01:09:45.289Z,26.48
2023-05-04T01:12:59.819Z,26.51
2023-05-04T01:16:09.920Z,27.15
2023-05-04T01:19:16.822Z,27.66
2023-05-04T01:22:25.623Z,28.17
2023-05-04T01:25:42.975Z,27.60
2023-05-04T01:29:07.970Z,28.64
2023-05-04T01:32:18.386Z,29.67
2023-05-04T01:35:24.769Z,30.87
2023-05-04T01:38:34.607Z,28.87
2023-05-04T01:41:41.736Z,28.83
2023-05-04T01:44:48.300Z,28.22
2023-05-04T01:47:56.300Z,28.03
2023-05-04T01:51:02.737Z,26.52
2023-05-04T01:54:11.680Z,26.57
2023-05-04T01:57:18.170Z,28.52
2023-05-04T02:00:23.993Z,33.32
2023-05-04T02:03:31.754Z,35.00
2023-05-04T02:06:37.703Z,32.08
2023-05-04T02:09:49.606Z,27.13
2023-05-04T02:12:55.312Z,27.74
2023-05-04T02:16:02.623Z,27.96
2023-05-04T02:19:08.265Z,25.97
2023-05-04T02:22:14.948Z,26.16
2023-05-04T02:25:23.692Z,24.97
2023-05-04T02:28:30.158Z,25.67
2023-05-04T02:31:35.950Z,26.16
2023-05-04T02:34:42.368Z,26.96
2023-05-04T02:37:47.972Z,28.07
2023-05-04T02:40:58.544Z,31.50
2023-05-04T02:44:04.175Z,28.34
2023-05-04T02:47:11.609Z,26.48
2023-05-04T02:50:17.418Z,26.20
2023-05-04T02:53:23.960Z,26.30
2023-05-04T02:56:32.355Z,27.31
2023-05-04T02:59:38.804Z,30.23
2023-05-04T03:02:44.490Z,32.18
2023-05-04T03:05:51.002Z,30.86
2023-05-04T03:08:56.687Z,25.49
2023-05-04T03:12:06.594Z,23.51
2023-05-04T03:15:13.034Z,23.83
2023-05-04T03:18:19.746Z,23.26
2023-05-04T03:21:27.555Z,23.03
2023-05-04T03:24:34.077Z,22.46
2023-05-04T03:27:42.194Z,21.78
2023-05-04T03:30:48.704Z,21.79
2023-05-04T03:33:57.039Z,22.68
2023-05-04T03:37:03.906Z,23.31
2023-05-04T03:40:11.323Z,21.99
2023-05-04T03:43:21.737Z,22.12
2023-05-04T03:46:27.791Z,22.67
2023-05-04T03:49:35.233Z,22.10
2023-05-04T03:52:40.897Z,25.21
2023-05-04T03:55:47.865Z,26.41
2023-05-04T03:58:56.147Z,28.25
2023-05-04T04:02:06.726Z,26.61
2023-05-04T04:05:12.927Z,25.33
2023-05-04T04:08:19.641Z,25.71
2023-05-04T04:11:27.212Z,26.03
2023-05-04T04:14:36.312Z,24.22
2023-05-04T04:17:41.879Z,22.81
2023-05-04T04:20:48.969Z,23.38
2023-05-04T04:23:54.560Z,22.32
2023-05-04T04:27:01.085Z,23.09
2023-05-04T04:30:14.260Z,22.69
2023-05-04T04:33:20.620Z,23.06
2023-05-04T04:36:26.130Z,22.41
2023-05-04T04:39:33.059Z,22.58
2023-05-04T04:42:42.134Z,22.64
2023-05-04T04:45:54.173Z,22.72
2023-05-04T04:48:59.722Z,24.24
2023-05-04T04:52:06.755Z,22.28
2023-05-04T04:55:13.436Z,22.37
2023-05-04T04:58:22.205Z,22.84
2023-05-04T05:01:30.533Z,21.79
2023-05-04T05:04:37.131Z,20.97
2023-05-04T05:07:42.927Z,21.43
2023-05-04T05:10:49.319Z,20.29
2023-05-04T05:13:54.920Z,19.28
2023-05-04T05:17:04.996Z,19.53
2023-05-04T05:20:12.865Z,22.71
2023-05-04T05:23:19.632Z,18.37
2023-05-04T05:26:25.255Z,18.16
2023-05-04T05:29:31.923Z,18.43
2023-05-04T05:32:40.315Z,17.73
2023-05-04T05:35:47.067Z,16.10
2023-05-04T05:38:53.179Z,13.61
2023-05-04T05:42:00.557Z,17.91
2023-05-04T05:45:06.295Z,12.80
2023-05-04T05:48:15.351Z,12.18
2023-05-04T05:51:21.214Z,13.17
2023-05-04T05:54:28.193Z,12.42
2023-05-04T05:57:33.806Z,12.22
2023-05-04T06:00:40.199Z,15.26
2023-05-04T06:03:48.532Z,13.68
2023-05-04T06:06:55.460Z,11.11
2023-05-04T06:10:01.204Z,11.87
2023-05-04T06:13:07.696Z,10.91
2023-05-04T06:16:13.515Z,10.18
2023-05-04T06:19:22.735Z,9.42
2023-05-04T06:22:28.474Z,10.58
2023-05-04T06:25:34.872Z,11.43
2023-05-04T06:28:40.597Z,11.68
2023-05-04T06:31:52.950Z,9.81
2023-05-04T06:35:02.897Z,12.40
2023-05-04T06:38:09.374Z,12.61
2023-05-04T06:41:15.027Z,13.08
2023-05-04T06:44:21.933Z,14.48
2023-05-04T06:47:27.756Z,14.40
2023-05-04T06:50:36.836Z,10.94
2023-05-04T06:53:42.591Z,6.89
2023-05-04T06:56:49.060Z,7.19
2023-05-04T06:59:54.959Z,6.20
2023-05-04T07:03:01.531Z,8.16
2023-05-04T07:06:11.347Z,5.26
2023-05-04T07:09:18.345Z,5.56
2023-05-04T07:12:23.997Z,5.50
2023-05-04T07:15:30.413Z,5.79
2023-05-04T07:18:36.063Z,4.66
2023-05-04T07:21:45.816Z,5.67
2023-05-04T07:24:52.302Z,5.09
2023-05-04T07:27:58.713Z,5.46
2023-05-04T07:31:04.477Z,5.23
2023-05-04T07:34:11.093Z,5.23
2023-05-04T07:37:19.381Z,4.94
2023-05-04T07:40:25.924Z,5.51
2023-05-04T07:43:31.681Z,5.49
2023-05-04T07:46:38.109Z,4.92
2023-05-04T07:49:43.718Z,5.02
2023-05-04T07:52:52.780Z,5.91
2023-05-04T07:56:01.064Z,5.38
2023-05-04T07:59:07.536Z,5.47
2023-05-04T08:02:13.307Z,5.84
2023-05-04T08:05:21.054Z,5.98
2023-05-04T08:08:29.401Z,5.96
2023-05-04T08:11:36.037Z,5.95
2023-05-04T08:14:42.553Z,5.51
2023-05-04T08:17:50.647Z,4.85
2023-05-04T08:20:56.781Z,4.77
2023-05-04T08:24:05.855Z,5.06
2023-05-04T08:27:12.672Z,4.34
2023-05-04T08:30:19.822Z,4.69
2023-05-04T08:33:25.518Z,4.31
2023-05-04T08:36:32.121Z,4.15
2023-05-04T08:39:41.963Z,3.95
2023-05-04T08:42:50.856Z,4.13
2023-05-04T08:45:56.768Z,3.94
2023-05-04T08:49:03.751Z,3.87
2023-05-04T08:52:13.893Z,3.91
2023-05-04T08:55:24.315Z,4.05
2023-05-04T08:58:31.208Z,3.76
2023-05-04T09:01:42.048Z,3.83
2023-05-04T09:04:48.214Z,3.64
2023-05-04T09:07:56.102Z,3.47
2023-05-04T09:11:04.967Z,4.02
2023-05-04T09:14:11.624Z,4.12
2023-05-04T09:17:26.537Z,3.71
2023-05-04T09:20:33.683Z,3.80
2023-05-04T09:23:50.031Z,3.79
2023-05-04T09:27:10.730Z,3.58
2023-05-04T09:30:16.545Z,3.69
2023-05-04T09:33:29.488Z,3.42
2023-05-04T09:36:35.094Z,3.59
2023-05-04T09:39:41.554Z,3.52
2023-05-04T09:43:01.245Z,3.81
2023-05-04T09:46:08.046Z,3.54
2023-05-04T09:49:13.960Z,3.55
2023-05-04T09:52:20.549Z,3.32
2023-05-04T09:55:29.630Z,3.67
2023-05-04T09:58:40.418Z,3.52
2023-05-04T10:01:47.672Z,3.73
2023-05-04T10:04:57.127Z,3.66
2023-05-04T10:08:04.170Z,3.63
2023-05-04T10:11:11.368Z,3.79
2023-05-04T10:14:20.800Z,3.82
2023-05-04T10:17:53.534Z,3.54
2023-05-04T10:21:32.733Z,3.65
2023-05-04T10:25:24.146Z,3.85
2023-05-04T10:28:53.885Z,3.79
2023-05-04T10:32:04.522Z,4.32
2023-05-04T10:35:12.995Z,3.96
2023-05-04T10:38:19.538Z,3.90
2023-05-04T10:41:25.100Z,4.04
2023-05-04T10:44:33.454Z,3.89
2023-05-04T10:47:42.798Z,3.84
2023-05-04T10:50:53.476Z,3.60
2023-05-04T10:54:01.611Z,3.34
2023-05-04T10:57:10.397Z,3.32
2023-05-04T11:00:18.340Z,3.35
2023-05-04T11:03:28.327Z,3.17
2023-05-04T11:06:34.252Z,3.22
2023-05-04T11:09:44.657Z,3.30
2023-05-04T11:12:50.581Z,3.10
2023-05-04T11:15:57.135Z,2.83
2023-05-04T11:19:12.843Z,2.93
2023-05-04T11:22:20.381Z,3.36
2023-05-04T11:25:32.507Z,3.56
2023-05-04T11:28:40.794Z,3.33
2023-05-04T11:31:57.893Z,3.35
2023-05-04T11:35:11.186Z,3.05
2023-05-04T11:38:22.254Z,2.98
2023-05-04T11:41:30.149Z,2.99
2023-05-04T11:44:36.539Z,3.26
2023-05-04T11:47:44.501Z,2.94
2023-05-04T11:50:55.388Z,2.98
2023-05-04T11:54:02.152Z,2.83
2023-05-04T11:57:08.270Z,2.94
2023-05-04T12:00:17.348Z,2.89
2023-05-04T12:03:39.286Z,3.68
2023-05-04T12:06:58.970Z,3.00
2023-05-04T12:10:06.195Z,3.73
2023-05-04T12:13:20.258Z,2.91
2023-05-04T12:16:28.305Z,2.83
2023-05-04T12:19:34.876Z,2.89
2023-05-04T12:22:43.066Z,2.84
2023-05-04T12:25:57.814Z,2.90
2023-05-04T12:29:04.105Z,3.19
2023-05-04T12:32:11.208Z,3.02
2023-05-04T12:35:17.280Z,3.10
2023-05-04T12:38:26.455Z,3.38
2023-05-04T12:41:32.883Z,3.19
2023-05-04T12:44:39.363Z,3.00
2023-05-04T12:47:44.957Z,3.06
2023-05-04T12:50:53.033Z,2.97
2023-05-04T12:54:01.680Z,3.81
2023-05-04T12:57:08.252Z,4.98
2023-05-04T13:00:16.293Z,2.88
2023-05-04T13:03:22.896Z,2.82
2023-05-04T13:06:30.405Z,3.08
2023-05-04T13:09:39.554Z,2.81
2023-05-04T13:12:46.257Z,2.95
2023-05-04T13:15:53.790Z,3.17
2023-05-04T13:18:59.616Z,3.04
2023-05-04T13:22:06.554Z,3.12
2023-05-04T13:25:15.267Z,2.90
2023-05-04T13:28:22.460Z,2.88
2023-05-04T13:31:28.196Z,2.94
2023-05-04T13:34:34.762Z,2.98
2023-05-04T13:37:40.868Z,2.74
2023-05-04T13:40:51.308Z,2.91
2023-05-04T13:43:57.249Z,3.33
2023-05-04T13:47:06.374Z,3.61
2023-05-04T13:50:13.111Z,3.77
2023-05-04T13:53:19.628Z,3.56
2023-05-04T13:56:27.875Z,3.17
2023-05-04T13:59:34.474Z,2.99
2023-05-04T14:02:40.310Z,3.38
2023-05-04T14:05:46.821Z,3.22
2023-05-04T14:08:52.579Z,3.23
2023-05-04T14:12:01.668Z,3.58
2023-05-04T14:15:08.859Z,3.39
2023-05-04T14:18:15.759Z,3.42
2023-05-04T14:21:21.499Z,3.26
2023-05-04T14:24:29.759Z,3.42
2023-05-04T14:27:38.302Z,3.35
2023-05-04T14:30:44.700Z,3.10
2023-05-04T14:33:50.364Z,3.02
2023-05-04T14:36:56.987Z,3.54
2023-05-04T14:40:02.724Z,3.28
2023-05-04T14:43:12.678Z,3.05
2023-05-04T14:46:18.381Z,3.32
2023-05-04T14:49:35.535Z,3.28
2023-05-04T14:52:42.921Z,6.24
2023-05-04T14:55:49.621Z,3.39
2023-05-04T14:59:01.430Z,3.38
2023-05-04T15:02:10.223Z,3.35
2023-05-04T15:05:19.742Z,3.62
2023-05-04T15:08:29.169Z,3.39
2023-05-04T15:11:34.751Z,3.34
2023-05-04T15:14:43.788Z,3.57
2023-05-04T15:17:49.442Z,3.80
2023-05-04T15:20:56.156Z,3.73
2023-05-04T15:24:02.190Z,4.53
2023-05-04T15:27:09.982Z,3.38
2023-05-04T15:30:19.085Z,3.77
2023-05-04T15:33:25.738Z,3.56
2023-05-04T15:36:31.964Z,3.55
2023-05-04T15:39:38.598Z,3.58
2023-05-04T15:42:44.343Z,3.72
2023-05-04T15:45:53.964Z,3.60
2023-05-04T15:49:01.764Z,3.91
2023-05-04T15:52:08.381Z,3.96
2023-05-04T15:55:25.222Z,4.19
2023-05-04T15:58:32.491Z,3.82
2023-05-04T16:01:40.867Z,3.92
2023-05-04T16:04:47.336Z,4.46
2023-05-04T16:07:54.027Z,4.24
2023-05-04T16:11:01.956Z,4.24
2023-05-04T16:14:07.754Z,4.71
2023-05-04T16:17:17.057Z,4.24
2023-05-04T16:20:22.625Z,4.72
2023-05-04T16:23:31.296Z,4.81
2023-05-04T16:26:36.993Z,4.53
2023-05-04T16:29:43.491Z,4.67
2023-05-04T16:32:51.819Z,4.70
2023-05-04T16:35:58.335Z,5.00
2023-05-04T16:39:03.930Z,5.00
2023-05-04T16:42:11.281Z,4.60
2023-05-04T16:45:17.470Z,4.80
2023-05-04T16:48:29.128Z,4.87
2023-05-04T16:51:34.843Z,4.83
2023-05-04T16:54:41.577Z,4.86
2023-05-04T16:57:47.109Z,5.29
2023-05-04T17:00:53.528Z,6.09
2023-05-04T17:04:04.720Z,5.27
2023-05-04T17:07:11.224Z,4.80
2023-05-04T17:10:18.427Z,5.19
2023-05-04T17:13:24.884Z,5.62
2023-05-04T17:16:30.729Z,5.82
2023-05-04T17:19:40.669Z,5.72
2023-05-04T17:22:48.027Z,5.79
2023-05-04T17:25:54.607Z,5.90
2023-05-04T17:29:00.396Z,6.58
2023-05-04T17:32:08.296Z,6.34
2023-05-04T17:35:25.459Z,6.48
2023-05-04T17:38:32.833Z,6.63
2023-05-04T17:41:38.540Z,5.64
2023-05-04T17:44:45.165Z,6.31
2023-05-04T17:47:53.102Z,6.17
2023-05-04T17:51:02.746Z,6.28
2023-05-04T17:54:08.705Z,6.37
2023-05-04T17:57:16.816Z,6.37
2023-05-04T18:00:23.923Z,6.74
2023-05-04T18:03:31.617Z,6.48
2023-05-04T18:06:39.854Z,6.94
2023-05-04T18:09:47.578Z,6.85
2023-05-04T18:12:53.279Z,7.50
2023-05-04T18:15:59.823Z,8.63
2023-05-04T18:19:06.756Z,12.25
2023-05-04T18:22:15.726Z,8.37
2023-05-04T18:25:21.480Z,8.24
2023-05-04T18:28:28.092Z,11.31
2023-05-04T18:31:34.962Z,9.85
2023-05-04T18:34:41.723Z,9.75
2023-05-04T18:37:49.960Z,10.09
2023-05-04T18:40:57.028Z,8.46
2023-05-04T18:44:02.712Z,8.77
2023-05-04T18:47:09.180Z,9.20
2023-05-04T18:50:14.928Z,8.87
2023-05-04T18:53:24.071Z,8.95
2023-05-04T18:56:30.112Z,8.91
2023-05-04T18:59:36.898Z,8.15
2023-05-04T19:02:42.699Z,8.11
2023-05-04T19:05:49.370Z,8.76
2023-05-04T19:08:57.723Z,9.63
2023-05-04T19:12:07.260Z,9.77
2023-05-04T19:15:13.562Z,10.48
2023-05-04T19:18:20.099Z,11.31
2023-05-04T19:21:25.811Z,13.34
2023-05-04T19:24:36.457Z,13.41
2023-05-04T19:27:42.326Z,11.44
2023-05-04T19:30:49.303Z,10.17
2023-05-04T19:33:55.205Z,9.61
2023-05-04T19:37:02.053Z,9.31
2023-05-04T19:40:12.038Z,9.07
2023-05-04T19:43:18.485Z,8.51
2023-05-04T19:46:24.240Z,8.68
2023-05-04T19:49:31.058Z,8.49
2023-05-04T19:52:37.519Z,8.65
2023-05-04T19:55:47.489Z,8.85
2023-05-04T19:58:53.469Z,9.21
2023-05-04T20:02:01.775Z,8.88
2023-05-04T20:05:08.181Z,9.86
2023-05-04T20:08:15.102Z,10.59
2023-05-04T20:11:25.308Z,12.71
2023-05-04T20:14:31.753Z,14.05
2023-05-04T20:17:37.521Z,13.56
2023-05-04T20:20:47.598Z,14.10
2023-05-04T20:23:54.502Z,13.98
2023-05-04T20:27:07.368Z,14.34
2023-05-04T20:30:16.692Z,14.08
2023-05-04T20:33:23.221Z,13.22
2023-05-04T20:36:29.333Z,13.15
2023-05-04T20:39:37.601Z,12.80
2023-05-04T20:42:48.984Z,12.23
2023-05-04T20:45:55.492Z,12.16
2023-05-04T20:49:03.056Z,12.06
2023-05-04T20:52:09.504Z,11.68
2023-05-04T20:55:15.276Z,11.88
2023-05-04T20:58:24.903Z,11.27
2023-05-04T21:01:30.706Z,11.39
2023-05-04T21:04:37.200Z,11.27
2023-05-04T21:07:42.836Z,11.45
2023-05-04T21:10:49.294Z,11.53
2023-05-04T21:13:57.491Z,11.62
2023-05-04T21:17:04.015Z,11.60
2023-05-04T21:20:13.476Z,11.14
2023-05-04T21:23:20.037Z,11.44
2023-05-04T21:26:25.692Z,11.14
2023-05-04T21:29:34.879Z,11.36
2023-05-04T21:32:41.574Z,11.71
2023-05-04T21:35:48.084Z,11.96
2023-05-04T21:38:55.519Z,12.15
2023-05-04T21:42:02.917Z,12.52
2023-05-04T21:45:12.566Z,13.05
2023-05-04T21:48:18.991Z,12.71
2023-05-04T21:51:24.492Z,11.89
2023-05-04T21:54:30.824Z,12.85
2023-05-04T21:57:36.433Z,13.04
2023-05-04T22:00:46.224Z,12.53
2023-05-04T22:03:53.062Z,12.50
2023-05-04T22:06:59.982Z,12.71
2023-05-04T22:10:06.333Z,12.69
2023-05-04T22:13:13.261Z,12.75
2023-05-04T22:16:21.751Z,13.26
2023-05-04T22:19:28.450Z,12.71
2023-05-04T22:22:34.176Z,13.00
2023-05-04T22:25:41.238Z,12.90
2023-05-04T22:28:48.433Z,13.36
2023-05-04T22:31:57.377Z,13.49
2023-05-04T22:35:03.520Z,14.15
2023-05-04T22:38:14.497Z,14.31
2023-05-04T22:41:20.148Z,14.36
2023-05-04T22:44:26.862Z,16.28
2023-05-04T22:47:35.132Z,17.85
2023-05-04T22:50:41.652Z,17.37
2023-05-04T22:53:47.233Z,17.44
2023-05-04T22:56:53.737Z,15.89
2023-05-04T22:59:59.375Z,14.85
2023-05-04T23:03:09.132Z,14.60
2023-05-04T23:06:15.468Z,15.31
2023-05-04T23:09:21.834Z,16.13
2023-05-04T23:12:28.429Z,15.14
2023-05-04T23:15:34.844Z,14.97
2023-05-04T23:18:45.960Z,16.06
2023-05-04T23:21:52.535Z,15.81
2023-05-04T23:24:58.157Z,16.09
2023-05-04T23:28:04.557Z,15.96
2023-05-04T23:31:10.414Z,16.06
2023-05-04T23:34:19.592Z,16.84
2023-05-04T23:37:25.810Z,17.21
2023-05-04T23:40:32.347Z,19.23
2023-05-04T23:43:37.911Z,18.97
2023-05-04T23:46:44.357Z,20.33
2023-05-04T23:49:54.633Z,21.33
2023-05-04T23:53:01.140Z,21.02
2023-05-04T23:56:09.554Z,22.01
2023-05-04T23:59:16.025Z,22.95
